sensor_id;sensor_type;location;lat;lon;timestamp;temperature;humidity
16040;DHT22;8124;48.634;8.120;2023-05-16T00:03:53;17.10;99.90
16040;DHT22;8124;48.634;8.120;2023-05-16T00:08:58;17.10;99.90
16040;DHT22;8124;48.634;8.120;2023-05-16T00:14:01;17.10;99.90
16040;DHT22;8124;48.634;8.120;2023-05-16T00:19:04;17.00;99.90
16040;DHT22;8124;48.634;8.120;2023-05-16T00:24:08;17.00;99.90
16040;DHT22;8124;48.634;8.120;2023-05-16T00:29:11;17.00;99.90
16040;DHT22;8124;48.634;8.120;2023-05-16T00:34:14;17.00;99.90
16040;DHT22;8124;48.634;8.120;2023-05-16T00:39:19;17.00;99.90
16040;DHT22;8124;48.634;8.120;2023-05-16T00:44:22;16.50;99.90
16040;DHT22;8124;48.634;8.120;2023-05-16T00:49:25;16.60;99.90
16040;DHT22;8124;48.634;8.120;2023-05-16T00:54:30;16.70;99.90
16040;DHT22;8124;48.634;8.120;2023-05-16T00:59:32;16.60;99.90
16040;DHT22;8124;48.634;8.120;2023-05-16T01:04:42;16.40;99.90
16040;DHT22;8124;48.634;8.120;2023-05-16T01:09:46;16.00;99.90
16040;DHT22;8124;48.634;8.120;2023-05-16T01:14:55;16.00;99.90
16040;DHT22;8124;48.634;8.120;2023-05-16T01:20:07;16.10;99.90
16040;DHT22;8124;48.634;8.120;2023-05-16T01:25:26;16.10;99.90
16040;DHT22;8124;48.634;8.120;2023-05-16T01:30:37;16.00;99.90
16040;DHT22;8124;48.634;8.120;2023-05-16T01:35:48;16.20;99.90
16040;DHT22;8124;48.634;8.120;2023-05-16T01:40:59;16.10;99.90
16040;DHT22;8124;48.634;8.120;2023-05-16T01:46:10;15.80;99.90
16040;DHT22;8124;48.634;8.120;2023-05-16T01:51:14;15.70;99.90
16040;DHT22;8124;48.634;8.120;2023-05-16T01:56:18;15.70;99.90
16040;DHT22;8124;48.634;8.120;2023-05-16T02:01:23;15.60;99.90
16040;DHT22;8124;48.634;8.120;2023-05-16T02:06:26;15.60;99.90
16040;DHT22;8124;48.634;8.120;2023-05-16T02:11:30;15.80;99.90
16040;DHT22;8124;48.634;8.120;2023-05-16T02:16:35;15.80;99.90
16040;DHT22;8124;48.634;8.120;2023-05-16T02:21:38;15.80;99.90
16040;DHT22;8124;48.634;8.120;2023-05-16T02:26:40;15.90;99.90
16040;DHT22;8124;48.634;8.120;2023-05-16T02:31:45;15.90;99.90
16040;DHT22;8124;48.634;8.120;2023-05-16T02:36:48;16.00;99.90
16040;DHT22;8124;48.634;8.120;2023-05-16T02:41:51;16.00;99.90
16040;DHT22;8124;48.634;8.120;2023-05-16T02:46:55;15.90;99.90
16040;DHT22;8124;48.634;8.120;2023-05-16T02:51:58;15.90;99.90
16040;DHT22;8124;48.634;8.120;2023-05-16T02:57:02;15.80;99.90
16040;DHT22;8124;48.634;8.120;2023-05-16T03:02:07;15.70;99.90
16040;DHT22;8124;48.634;8.120;2023-05-16T03:07:11;15.70;99.90
16040;DHT22;8124;48.634;8.120;2023-05-16T03:12:14;15.70;99.90
16040;DHT22;8124;48.634;8.120;2023-05-16T03:17:18;15.60;99.90
16040;DHT22;8124;48.634;8.120;2023-05-16T03:22:21;15.80;99.90
16040;DHT22;8124;48.634;8.120;2023-05-16T03:27:25;15.70;99.90
16040;DHT22;8124;48.634;8.120;2023-05-16T03:32:30;15.70;99.90
16040;DHT22;8124;48.634;8.120;2023-05-16T03:37:33;15.70;99.90
16040;DHT22;8124;48.634;8.120;2023-05-16T03:42:36;15.70;99.90
16040;DHT22;8124;48.634;8.120;2023-05-16T03:47:40;15.70;99.90
16040;DHT22;8124;48.634;8.120;2023-05-16T03:52:43;15.60;99.90
16040;DHT22;8124;48.634;8.120;2023-05-16T03:57:46;15.50;99.90
16040;DHT22;8124;48.634;8.120;2023-05-16T04:02:52;15.40;99.90
16040;DHT22;8124;48.634;8.120;2023-05-16T04:07:55;15.20;99.90
16040;DHT22;8124;48.634;8.120;2023-05-16T04:12:58;15.20;99.90
16040;DHT22;8124;48.634;8.120;2023-05-16T04:18:02;15.20;99.90
16040;DHT22;8124;48.634;8.120;2023-05-16T04:23:05;15.10;99.90
16040;DHT22;8124;48.634;8.120;2023-05-16T04:28:09;15.10;99.90
16040;DHT22;8124;48.634;8.120;2023-05-16T04:33:14;15.20;99.90
16040;DHT22;8124;48.634;8.120;2023-05-16T04:38:17;15.10;99.90
16040;DHT22;8124;48.634;8.120;2023-05-16T04:43:20;15.00;99.90
16040;DHT22;8124;48.634;8.120;2023-05-16T04:48:24;14.90;99.90
16040;DHT22;8124;48.634;8.120;2023-05-16T04:53:27;15.00;99.90
16040;DHT22;8124;48.634;8.120;2023-05-16T04:58:30;15.00;99.90
16040;DHT22;8124;48.634;8.120;2023-05-16T05:03:35;14.80;99.90
16040;DHT22;8124;48.634;8.120;2023-05-16T05:08:38;14.80;99.90
16040;DHT22;8124;48.634;8.120;2023-05-16T05:13:41;14.90;99.90
16040;DHT22;8124;48.634;8.120;2023-05-16T05:18:46;14.90;99.90
16040;DHT22;8124;48.634;8.120;2023-05-16T05:23:49;14.70;99.90
16040;DHT22;8124;48.634;8.120;2023-05-16T05:28:52;14.60;99.90
16040;DHT22;8124;48.634;8.120;2023-05-16T05:34:07;14.40;99.90
16040;DHT22;8124;48.634;8.120;2023-05-16T05:39:10;14.50;99.90
16040;DHT22;8124;48.634;8.120;2023-05-16T05:44:13;14.60;99.90
16040;DHT22;8124;48.634;8.120;2023-05-16T05:49:17;14.50;99.90
16040;DHT22;8124;48.634;8.120;2023-05-16T05:54:20;14.30;99.90
16040;DHT22;8124;48.634;8.120;2023-05-16T05:59:23;14.10;99.90
16040;DHT22;8124;48.634;8.120;2023-05-16T06:04:27;14.00;99.90
16040;DHT22;8124;48.634;8.120;2023-05-16T06:09:30;13.90;99.90
16040;DHT22;8124;48.634;8.120;2023-05-16T06:14:33;13.90;99.90
16040;DHT22;8124;48.634;8.120;2023-05-16T06:19:37;13.80;99.90
16040;DHT22;8124;48.634;8.120;2023-05-16T06:24:40;13.60;99.90
16040;DHT22;8124;48.634;8.120;2023-05-16T06:29:43;13.70;99.90
16040;DHT22;8124;48.634;8.120;2023-05-16T06:34:48;13.50;99.90
16040;DHT22;8124;48.634;8.120;2023-05-16T06:39:51;13.50;99.90
16040;DHT22;8124;48.634;8.120;2023-05-16T06:44:54;13.40;99.90
16040;DHT22;8124;48.634;8.120;2023-05-16T06:49:59;13.40;99.90
16040;DHT22;8124;48.634;8.120;2023-05-16T06:55:02;13.40;99.90
16040;DHT22;8124;48.634;8.120;2023-05-16T07:00:06;13.20;99.90
16040;DHT22;8124;48.634;8.120;2023-05-16T07:05:11;13.20;99.90
16040;DHT22;8124;48.634;8.120;2023-05-16T07:10:14;13.30;99.90
16040;DHT22;8124;48.634;8.120;2023-05-16T07:15:17;13.30;99.90
16040;DHT22;8124;48.634;8.120;2023-05-16T07:20:22;13.40;99.90
16040;DHT22;8124;48.634;8.120;2023-05-16T07:25:25;13.40;99.90
16040;DHT22;8124;48.634;8.120;2023-05-16T07:30:29;13.20;99.90
16040;DHT22;8124;48.634;8.120;2023-05-16T07:35:33;13.30;99.90
16040;DHT22;8124;48.634;8.120;2023-05-16T07:40:36;13.40;99.90
16040;DHT22;8124;48.634;8.120;2023-05-16T07:45:39;13.30;99.90
16040;DHT22;8124;48.634;8.120;2023-05-16T07:50:44;13.40;99.90
16040;DHT22;8124;48.634;8.120;2023-05-16T07:55:47;13.30;99.90
16040;DHT22;8124;48.634;8.120;2023-05-16T08:00:51;13.40;99.90
16040;DHT22;8124;48.634;8.120;2023-05-16T08:05:56;13.50;99.90
16040;DHT22;8124;48.634;8.120;2023-05-16T08:10:59;13.30;99.90
16040;DHT22;8124;48.634;8.120;2023-05-16T08:16:02;13.40;99.90
16040;DHT22;8124;48.634;8.120;2023-05-16T08:21:06;13.30;99.90
16040;DHT22;8124;48.634;8.120;2023-05-16T08:26:10;13.20;99.90
16040;DHT22;8124;48.634;8.120;2023-05-16T08:31:13;13.30;99.90
16040;DHT22;8124;48.634;8.120;2023-05-16T08:36:17;13.30;99.90
16040;DHT22;8124;48.634;8.120;2023-05-16T08:41:21;13.30;99.90
16040;DHT22;8124;48.634;8.120;2023-05-16T08:46:24;13.40;99.90
16040;DHT22;8124;48.634;8.120;2023-05-16T08:51:32;13.60;99.90
16040;DHT22;8124;48.634;8.120;2023-05-16T08:56:37;13.60;99.90
16040;DHT22;8124;48.634;8.120;2023-05-16T09:01:40;13.40;99.90
16040;DHT22;8124;48.634;8.120;2023-05-16T09:06:45;13.50;99.90
16040;DHT22;8124;48.634;8.120;2023-05-16T09:11:49;13.60;99.90
16040;DHT22;8124;48.634;8.120;2023-05-16T09:17:03;13.50;99.90
16040;DHT22;8124;48.634;8.120;2023-05-16T09:22:11;13.40;99.90
16040;DHT22;8124;48.634;8.120;2023-05-16T09:27:15;13.40;99.90
16040;DHT22;8124;48.634;8.120;2023-05-16T09:32:18;13.40;99.90
16040;DHT22;8124;48.634;8.120;2023-05-16T09:37:22;13.40;99.90
16040;DHT22;8124;48.634;8.120;2023-05-16T09:42:26;13.40;99.90
16040;DHT22;8124;48.634;8.120;2023-05-16T09:47:29;13.30;99.90
16040;DHT22;8124;48.634;8.120;2023-05-16T09:52:33;13.00;99.90
16040;DHT22;8124;48.634;8.120;2023-05-16T09:57:36;13.10;99.90
16040;DHT22;8124;48.634;8.120;2023-05-16T10:02:41;13.20;99.90
16040;DHT22;8124;48.634;8.120;2023-05-16T10:07:46;13.20;99.90
16040;DHT22;8124;48.634;8.120;2023-05-16T10:12:50;13.40;99.90
16040;DHT22;8124;48.634;8.120;2023-05-16T10:17:55;13.60;99.90
16040;DHT22;8124;48.634;8.120;2023-05-16T10:23:03;13.20;99.90
16040;DHT22;8124;48.634;8.120;2023-05-16T10:28:07;13.30;99.90
16040;DHT22;8124;48.634;8.120;2023-05-16T10:33:11;13.30;99.90
16040;DHT22;8124;48.634;8.120;2023-05-16T10:38:17;13.20;99.90
16040;DHT22;8124;48.634;8.120;2023-05-16T10:43:26;13.10;99.90
16040;DHT22;8124;48.634;8.120;2023-05-16T10:48:30;13.00;99.90
16040;DHT22;8124;48.634;8.120;2023-05-16T10:53:35;13.00;99.90
16040;DHT22;8124;48.634;8.120;2023-05-16T10:58:42;12.80;99.90
16040;DHT22;8124;48.634;8.120;2023-05-16T11:04:06;12.90;99.90
16040;DHT22;8124;48.634;8.120;2023-05-16T11:09:20;13.00;99.90
16040;DHT22;8124;48.634;8.120;2023-05-16T11:14:25;13.00;99.90
16040;DHT22;8124;48.634;8.120;2023-05-16T11:19:34;13.20;99.90
16040;DHT22;8124;48.634;8.120;2023-05-16T11:24:49;13.10;99.90
16040;DHT22;8124;48.634;8.120;2023-05-16T11:29:54;13.10;99.90
16040;DHT22;8124;48.634;8.120;2023-05-16T11:34:57;13.20;99.90
16040;DHT22;8124;48.634;8.120;2023-05-16T11:40:03;13.10;99.90
16040;DHT22;8124;48.634;8.120;2023-05-16T11:45:08;13.20;99.90
16040;DHT22;8124;48.634;8.120;2023-05-16T11:50:14;13.10;99.90
16040;DHT22;8124;48.634;8.120;2023-05-16T11:55:19;13.00;99.90
16040;DHT22;8124;48.634;8.120;2023-05-16T12:00:46;12.80;99.90
16040;DHT22;8124;48.634;8.120;2023-05-16T12:05:50;12.70;99.90
16040;DHT22;8124;48.634;8.120;2023-05-16T12:10:55;12.50;99.90
16040;DHT22;8124;48.634;8.120;2023-05-16T12:15:59;12.40;99.90
16040;DHT22;8124;48.634;8.120;2023-05-16T12:21:02;12.40;99.90
16040;DHT22;8124;48.634;8.120;2023-05-16T12:26:06;12.40;99.90
16040;DHT22;8124;48.634;8.120;2023-05-16T12:31:18;12.50;99.90
16040;DHT22;8124;48.634;8.120;2023-05-16T12:36:33;12.60;99.90
16040;DHT22;8124;48.634;8.120;2023-05-16T12:41:40;12.70;99.90
16040;DHT22;8124;48.634;8.120;2023-05-16T12:46:45;12.60;99.90
16040;DHT22;8124;48.634;8.120;2023-05-16T12:51:50;12.60;99.90
16040;DHT22;8124;48.634;8.120;2023-05-16T13:01:59;12.70;99.90
16040;DHT22;8124;48.634;8.120;2023-05-16T13:07:02;12.70;99.90
16040;DHT22;8124;48.634;8.120;2023-05-16T13:12:06;12.80;99.90
16040;DHT22;8124;48.634;8.120;2023-05-16T13:17:11;12.80;99.90
16040;DHT22;8124;48.634;8.120;2023-05-16T13:22:14;12.70;99.90
16040;DHT22;8124;48.634;8.120;2023-05-16T13:27:16;12.70;99.90
16040;DHT22;8124;48.634;8.120;2023-05-16T13:32:21;12.80;99.90
16040;DHT22;8124;48.634;8.120;2023-05-16T13:37:24;12.70;99.90
16040;DHT22;8124;48.634;8.120;2023-05-16T13:42:27;12.60;99.90
16040;DHT22;8124;48.634;8.120;2023-05-16T13:47:31;12.70;99.90
16040;DHT22;8124;48.634;8.120;2023-05-16T13:52:34;12.60;99.90
16040;DHT22;8124;48.634;8.120;2023-05-16T13:57:38;12.50;99.90
16040;DHT22;8124;48.634;8.120;2023-05-16T14:02:43;12.20;99.90
16040;DHT22;8124;48.634;8.120;2023-05-16T14:07:46;12.40;99.90
16040;DHT22;8124;48.634;8.120;2023-05-16T14:12:49;12.30;99.90
16040;DHT22;8124;48.634;8.120;2023-05-16T14:17:53;12.20;99.90
16040;DHT22;8124;48.634;8.120;2023-05-16T14:22:57;12.20;99.90
16040;DHT22;8124;48.634;8.120;2023-05-16T14:27:59;12.20;99.90
16040;DHT22;8124;48.634;8.120;2023-05-16T14:33:04;12.40;99.90
16040;DHT22;8124;48.634;8.120;2023-05-16T14:38:07;12.30;99.90
16040;DHT22;8124;48.634;8.120;2023-05-16T14:43:10;12.30;99.90
16040;DHT22;8124;48.634;8.120;2023-05-16T14:48:16;12.30;99.90
16040;DHT22;8124;48.634;8.120;2023-05-16T14:53:19;12.40;99.90
16040;DHT22;8124;48.634;8.120;2023-05-16T14:58:23;12.30;99.90
16040;DHT22;8124;48.634;8.120;2023-05-16T15:03:28;12.40;99.90
16040;DHT22;8124;48.634;8.120;2023-05-16T15:08:44;12.70;99.90
16040;DHT22;8124;48.634;8.120;2023-05-16T15:13:46;12.80;99.90
16040;DHT22;8124;48.634;8.120;2023-05-16T15:18:51;12.80;99.90
16040;DHT22;8124;48.634;8.120;2023-05-16T15:23:54;12.80;99.90
16040;DHT22;8124;48.634;8.120;2023-05-16T15:28:57;13.10;99.90
16040;DHT22;8124;48.634;8.120;2023-05-16T15:34:01;13.30;99.90
16040;DHT22;8124;48.634;8.120;2023-05-16T15:39:04;13.40;99.90
16040;DHT22;8124;48.634;8.120;2023-05-16T15:44:07;13.30;99.90
16040;DHT22;8124;48.634;8.120;2023-05-16T15:49:12;13.40;99.90
16040;DHT22;8124;48.634;8.120;2023-05-16T15:54:15;13.40;99.90
16040;DHT22;8124;48.634;8.120;2023-05-16T15:59:18;13.50;99.90
16040;DHT22;8124;48.634;8.120;2023-05-16T16:04:22;13.50;99.90
16040;DHT22;8124;48.634;8.120;2023-05-16T16:09:25;13.70;99.90
16040;DHT22;8124;48.634;8.120;2023-05-16T16:14:28;13.90;99.90
16040;DHT22;8124;48.634;8.120;2023-05-16T16:19:33;14.00;99.90
16040;DHT22;8124;48.634;8.120;2023-05-16T16:24:36;14.10;99.90
16040;DHT22;8124;48.634;8.120;2023-05-16T16:29:43;14.20;99.90
16040;DHT22;8124;48.634;8.120;2023-05-16T16:34:48;14.50;99.90
16040;DHT22;8124;48.634;8.120;2023-05-16T16:39:52;14.70;99.90
16040;DHT22;8124;48.634;8.120;2023-05-16T16:44:55;14.70;99.90
16040;DHT22;8124;48.634;8.120;2023-05-16T16:49:59;14.70;99.90
16040;DHT22;8124;48.634;8.120;2023-05-16T16:55:03;14.80;99.90
16040;DHT22;8124;48.634;8.120;2023-05-16T17:00:09;14.60;99.90
16040;DHT22;8124;48.634;8.120;2023-05-16T17:05:14;14.90;99.90
16040;DHT22;8124;48.634;8.120;2023-05-16T17:10:17;14.90;99.90
16040;DHT22;8124;48.634;8.120;2023-05-16T17:15:21;14.70;99.90
16040;DHT22;8124;48.634;8.120;2023-05-16T17:20:26;14.80;99.90
16040;DHT22;8124;48.634;8.120;2023-05-16T17:25:30;14.90;99.90
16040;DHT22;8124;48.634;8.120;2023-05-16T17:30:33;14.90;99.90
16040;DHT22;8124;48.634;8.120;2023-05-16T17:35:37;14.90;99.90
16040;DHT22;8124;48.634;8.120;2023-05-16T17:40:41;15.10;99.90
16040;DHT22;8124;48.634;8.120;2023-05-16T17:45:44;15.20;99.90
16040;DHT22;8124;48.634;8.120;2023-05-16T17:50:49;15.10;99.90
16040;DHT22;8124;48.634;8.120;2023-05-16T17:55:52;15.10;99.90
16040;DHT22;8124;48.634;8.120;2023-05-16T18:00:55;15.10;99.90
16040;DHT22;8124;48.634;8.120;2023-05-16T18:06:00;15.10;99.90
16040;DHT22;8124;48.634;8.120;2023-05-16T18:11:03;15.10;99.90
16040;DHT22;8124;48.634;8.120;2023-05-16T18:16:06;15.10;99.90
16040;DHT22;8124;48.634;8.120;2023-05-16T18:21:12;15.00;99.90
16040;DHT22;8124;48.634;8.120;2023-05-16T18:26:15;14.90;99.90
16040;DHT22;8124;48.634;8.120;2023-05-16T18:31:25;15.00;99.90
16040;DHT22;8124;48.634;8.120;2023-05-16T18:36:29;15.00;99.90
16040;DHT22;8124;48.634;8.120;2023-05-16T18:41:33;14.90;99.90
16040;DHT22;8124;48.634;8.120;2023-05-16T18:46:36;14.90;99.90
16040;DHT22;8124;48.634;8.120;2023-05-16T18:51:41;15.00;99.90
16040;DHT22;8124;48.634;8.120;2023-05-16T18:56:45;15.00;99.90
16040;DHT22;8124;48.634;8.120;2023-05-16T19:01:49;15.00;99.90
16040;DHT22;8124;48.634;8.120;2023-05-16T19:06:53;14.90;99.90
16040;DHT22;8124;48.634;8.120;2023-05-16T19:11:58;14.60;99.90
16040;DHT22;8124;48.634;8.120;2023-05-16T19:17:03;14.70;99.90
16040;DHT22;8124;48.634;8.120;2023-05-16T19:22:08;14.70;99.90
16040;DHT22;8124;48.634;8.120;2023-05-16T19:27:11;14.60;99.90
16040;DHT22;8124;48.634;8.120;2023-05-16T19:32:14;14.50;99.90
16040;DHT22;8124;48.634;8.120;2023-05-16T19:37:36;14.60;99.90
16040;DHT22;8124;48.634;8.120;2023-05-16T19:42:41;14.60;99.90
16040;DHT22;8124;48.634;8.120;2023-05-16T19:47:44;14.60;99.90
16040;DHT22;8124;48.634;8.120;2023-05-16T19:52:49;14.70;99.90
16040;DHT22;8124;48.634;8.120;2023-05-16T19:57:52;14.80;99.90
16040;DHT22;8124;48.634;8.120;2023-05-16T20:02:55;14.80;99.90
16040;DHT22;8124;48.634;8.120;2023-05-16T20:07:59;14.60;99.90
16040;DHT22;8124;48.634;8.120;2023-05-16T20:13:02;14.60;99.90
16040;DHT22;8124;48.634;8.120;2023-05-16T20:18:05;14.30;99.90
16040;DHT22;8124;48.634;8.120;2023-05-16T20:23:09;14.00;99.90
16040;DHT22;8124;48.634;8.120;2023-05-16T20:28:12;13.90;99.90
16040;DHT22;8124;48.634;8.120;2023-05-16T20:33:15;13.90;99.90
16040;DHT22;8124;48.634;8.120;2023-05-16T20:38:20;13.50;99.90
16040;DHT22;8124;48.634;8.120;2023-05-16T20:43:23;13.90;99.90
16040;DHT22;8124;48.634;8.120;2023-05-16T20:48:27;13.50;99.90
16040;DHT22;8124;48.634;8.120;2023-05-16T20:53:33;13.40;99.90
16040;DHT22;8124;48.634;8.120;2023-05-16T20:58:36;13.60;99.90
16040;DHT22;8124;48.634;8.120;2023-05-16T21:03:42;13.70;99.90
16040;DHT22;8124;48.634;8.120;2023-05-16T21:08:47;13.30;99.90
16040;DHT22;8124;48.634;8.120;2023-05-16T21:13:50;13.10;99.90
16040;DHT22;8124;48.634;8.120;2023-05-16T21:18:53;12.80;99.90
16040;DHT22;8124;48.634;8.120;2023-05-16T21:23:57;13.00;99.80
16040;DHT22;8124;48.634;8.120;2023-05-16T21:29:00;12.80;99.20
16040;DHT22;8124;48.634;8.120;2023-05-16T21:34:03;12.90;99.00
16040;DHT22;8124;48.634;8.120;2023-05-16T21:39:08;13.00;99.00
16040;DHT22;8124;48.634;8.120;2023-05-16T21:44:11;12.90;98.90
16040;DHT22;8124;48.634;8.120;2023-05-16T21:49:17;12.80;99.00
16040;DHT22;8124;48.634;8.120;2023-05-16T21:54:22;13.00;99.90
16040;DHT22;8124;48.634;8.120;2023-05-16T21:59:25;12.80;99.90
16040;DHT22;8124;48.634;8.120;2023-05-16T22:04:28;13.00;99.90
16040;DHT22;8124;48.634;8.120;2023-05-16T22:09:32;13.10;99.90
16040;DHT22;8124;48.634;8.120;2023-05-16T22:14:35;13.10;99.90
16040;DHT22;8124;48.634;8.120;2023-05-16T22:19:38;13.00;99.90
16040;DHT22;8124;48.634;8.120;2023-05-16T22:24:44;12.90;99.90
16040;DHT22;8124;48.634;8.120;2023-05-16T22:29:47;12.90;99.90
16040;DHT22;8124;48.634;8.120;2023-05-16T22:34:50;12.90;99.90
16040;DHT22;8124;48.634;8.120;2023-05-16T22:39:55;12.60;99.90
16040;DHT22;8124;48.634;8.120;2023-05-16T22:44:58;12.60;99.90
16040;DHT22;8124;48.634;8.120;2023-05-16T22:50:02;12.40;99.90
16040;DHT22;8124;48.634;8.120;2023-05-16T22:55:07;12.30;99.90
16040;DHT22;8124;48.634;8.120;2023-05-16T23:00:11;12.20;99.90
16040;DHT22;8124;48.634;8.120;2023-05-16T23:05:14;11.90;99.90
16040;DHT22;8124;48.634;8.120;2023-05-16T23:10:18;11.80;99.90
16040;DHT22;8124;48.634;8.120;2023-05-16T23:15:21;11.80;99.90
16040;DHT22;8124;48.634;8.120;2023-05-16T23:20:24;11.70;99.90
16040;DHT22;8124;48.634;8.120;2023-05-16T23:25:29;11.70;99.90
16040;DHT22;8124;48.634;8.120;2023-05-16T23:30:32;11.70;99.90
16040;DHT22;8124;48.634;8.120;2023-05-16T23:35:35;11.60;99.90
16040;DHT22;8124;48.634;8.120;2023-05-16T23:40:39;11.50;99.90
16040;DHT22;8124;48.634;8.120;2023-05-16T23:45:42;11.50;99.90
16040;DHT22;8124;48.634;8.120;2023-05-16T23:50:45;11.50;99.90
16040;DHT22;8124;48.634;8.120;2023-05-16T23:55:49;11.40;99.90
